Time;durP1;ratioP1;P1;durP2;ratioP2;P2;SDS_P1;SDS_P2;PMS_P1;PMS_P2;Temp;Humidity;BMP_temperature;BMP_pressure;BME280_temperature;BME280_humidity;BME280_pressure;Samples;Min_cycle;Max_cycle;Signal;HPM_P1;HPM_P2
2021/04/12 00:01:15;;;;;;;4.43;3.50;;;20.10;42.30;;;;;;5131380;27;20047;-38
2021/04/12 00:04:03;;;;;;;4.32;3.50;;;20.10;42.30;;;;;;5132624;27;20499;-38
2021/04/12 00:06:41;;;;;;;4.35;3.30;;;20.10;42.30;;;;;;5133302;27;20051;-37
2021/04/12 00:09:17;;;;;;;5.20;3.78;;;20.00;42.30;;;;;;5132176;27;20050;-38
2021/04/12 00:12:01;;;;;;;4.68;3.55;;;20.10;42.40;;;;;;5131969;27;20047;-37
2021/04/12 00:14:43;;;;;;;5.07;3.70;;;20.10;42.30;;;;;;5133046;27;20047;-38
2021/04/12 00:17:13;;;;;;;4.05;3.30;;;20.00;42.20;;;;;;5132145;27;20043;-37
2021/04/12 00:20:19;;;;;;;4.70;3.75;;;20.00;42.20;;;;;;5116427;27;20051;-37
2021/04/12 00:23:12;;;;;;;4.78;3.60;;;20.10;42.30;;;;;;5113980;27;20058;-38
2021/04/12 00:26:20;;;;;;;5.40;3.75;;;20.10;42.30;;;;;;5099837;27;20094;-37
2021/04/12 00:28:59;;;;;;;4.65;3.63;;;20.10;42.30;;;;;;5116360;27;20403;-38
2021/04/12 00:31:56;;;;;;;4.25;3.42;;;20.10;42.30;;;;;;5098419;28;20056;-38
2021/04/12 00:34:27;;;;;;;4.10;3.35;;;20.00;42.20;;;;;;5120523;27;20043;-37
2021/04/12 00:37:05;;;;;;;4.85;3.53;;;20.10;42.30;;;;;;5120691;27;20444;-37
2021/04/12 00:39:54;;;;;;;4.38;3.45;;;20.00;42.20;;;;;;5131990;27;20482;-37
2021/04/12 00:42:33;;;;;;;5.13;3.88;;;20.10;42.30;;;;;;5131258;27;20534;-37
2021/04/12 00:45:19;;;;;;;4.53;3.60;;;20.00;42.30;;;;;;5121952;27;20069;-37
2021/04/12 00:48:24;;;;;;;4.47;3.40;;;20.10;42.30;;;;;;5127964;28;20494;-38
2021/04/12 00:51:12;;;;;;;4.65;3.67;;;20.10;42.30;;;;;;5066123;28;20057;-37
2021/04/12 00:53:50;;;;;;;4.55;3.70;;;20.10;42.30;;;;;;5049409;28;20049;-38
2021/04/12 00:56:50;;;;;;;4.85;3.30;;;20.10;42.30;;;;;;5049426;28;20053;-38
2021/04/12 00:59:35;;;;;;;4.80;3.50;;;20.10;42.30;;;;;;5029375;28;20079;-38
2021/04/12 01:02:11;;;;;;;4.60;3.63;;;20.10;42.30;;;;;;5054786;28;20284;-37
2021/04/12 01:04:51;;;;;;;4.47;3.60;;;20.10;42.30;;;;;;5054489;28;20084;-37
2021/04/12 01:07:52;;;;;;;4.20;3.30;;;20.00;42.20;;;;;;5054485;28;20505;-37
2021/04/12 01:10:43;;;;;;;4.13;3.55;;;20.00;42.20;;;;;;5053323;28;20450;-37
2021/04/12 01:13:40;;;;;;;4.47;3.60;;;20.10;42.30;;;;;;5063735;28;20582;-37
2021/04/12 01:16:43;;;;;;;3.97;3.38;;;20.00;42.30;;;;;;5069761;28;20044;-37
2021/04/12 01:19:51;;;;;;;5.15;3.80;;;20.10;42.30;;;;;;5071206;28;20048;-37
2021/04/12 01:22:45;;;;;;;4.28;3.38;;;20.10;42.30;;;;;;5039473;28;20040;-37
2021/04/12 01:25:32;;;;;;;4.13;3.07;;;20.10;42.30;;;;;;5053133;28;20052;-37
2021/04/12 01:28:36;;;;;;;4.40;3.42;;;20.10;42.40;;;;;;5090973;27;20353;-37
2021/04/12 01:31:26;;;;;;;4.13;3.17;;;20.10;42.40;;;;;;5123179;27;20572;-37
2021/04/12 01:33:52;;;;;;;4.15;3.35;;;20.10;42.40;;;;;;5128395;27;20213;-37
2021/04/12 01:36:28;;;;;;;4.05;3.13;;;20.00;42.30;;;;;;5114962;27;20096;-38
2021/04/12 01:39:09;;;;;;;4.80;3.55;;;20.00;42.20;;;;;;5135051;27;20043;-38
2021/04/12 01:42:24;;;;;;;5.18;3.80;;;20.10;42.30;;;;;;5134966;27;20576;-37
2021/04/12 01:45:05;;;;;;;4.22;3.50;;;20.10;42.30;;;;;;5070307;28;20071;-38
2021/04/12 01:47:58;;;;;;;4.53;3.35;;;20.00;42.20;;;;;;5053807;28;20098;-37
2021/04/12 01:50:55;;;;;;;5.13;3.70;;;20.00;42.30;;;;;;5036445;28;20378;-37
2021/04/12 01:53:58;;;;;;;4.18;3.28;;;20.10;42.40;;;;;;5053686;28;20136;-38
2021/04/12 01:56:55;;;;;;;3.88;3.30;;;20.00;42.30;;;;;;5053659;28;20104;-37
2021/04/12 01:59:57;;;;;;;4.50;3.38;;;20.10;42.40;;;;;;5053304;28;20471;-38
2021/04/12 02:02:59;;;;;;;4.45;3.47;;;20.00;42.30;;;;;;5015989;28;20108;-37
2021/04/12 02:06:00;;;;;;;4.20;3.40;;;20.00;42.30;;;;;;5012085;28;20049;-38
2021/04/12 02:08:47;;;;;;;4.00;3.10;;;20.10;42.40;;;;;;4997982;28;20045;-37
2021/04/12 02:11:32;;;;;;;4.35;3.40;;;20.00;42.90;;;;;;5013838;28;20080;-38
2021/04/12 02:14:16;;;;;;;3.85;3.17;;;20.00;42.30;;;;;;5012310;28;20042;-38
2021/04/12 02:16:46;;;;;;;;;;;20.00;42.30;;;;;;5012920;28;20406;-37
2021/04/12 02:19:34;;;;;;;4.40;3.08;;;20.00;42.30;;;;;;5012287;28;19921;-37
2021/04/12 02:22:38;;;;;;;4.22;3.33;;;20.00;42.30;;;;;;5060615;28;20157;-37
2021/04/12 02:25:04;;;;;;;4.30;3.13;;;20.00;42.30;;;;;;5069398;28;20108;-38
2021/04/12 02:27:53;;;;;;;4.85;3.58;;;20.00;42.30;;;;;;5070795;28;20048;-37
2021/04/12 02:30:34;;;;;;;3.50;3.17;;;20.00;42.30;;;;;;5069005;28;20048;-37
2021/04/12 02:33:19;;;;;;;4.30;3.20;;;20.00;42.30;;;;;;5069534;28;20040;-37
2021/04/12 02:36:19;;;;;;;4.32;3.17;;;20.00;42.30;;;;;;5069827;28;20336;-38
2021/04/12 02:39:04;;;;;;;4.30;3.00;;;20.00;42.30;;;;;;5105662;28;20051;-37
2021/04/12 02:41:57;;;;;;;3.85;3.15;;;20.00;42.30;;;;;;5133268;27;20505;-37
2021/04/12 02:44:32;;;;;;;4.10;3.15;;;20.00;42.30;;;;;;5116582;27;20044;-38
2021/04/12 02:47:26;;;;;;;3.53;2.88;;;20.00;42.40;;;;;;5132767;27;20432;-37
2021/04/12 02:50:13;;;;;;;4.57;3.10;;;20.00;42.30;;;;;;5134052;27;20367;-38
2021/04/12 02:53:07;;;;;;;4.82;3.50;;;20.00;42.30;;;;;;5131382;27;20051;-37
2021/04/12 02:55:49;;;;;;;4.68;3.15;;;20.00;42.30;;;;;;5133680;27;20509;-39
2021/04/12 02:58:48;;;;;;;3.47;2.85;;;20.00;42.30;;;;;;5133439;27;20129;-38
2021/04/12 03:01:37;;;;;;;4.22;3.13;;;20.00;42.30;;;;;;5072737;28;20414;-38
2021/04/12 03:04:48;;;;;;;4.22;2.88;;;20.00;42.30;;;;;;5118013;27;20047;-38
2021/04/12 03:07:30;;;;;;;3.58;3.00;;;20.00;42.30;;;;;;5093924;28;20047;-38
2021/04/12 03:10:09;;;;;;;3.40;2.72;;;20.00;42.30;;;;;;5116056;27;20118;-37
2021/04/12 03:12:45;;;;;;;4.82;3.55;;;20.00;42.30;;;;;;5116508;27;20089;-37
2021/04/12 03:15:17;;;;;;;3.63;3.05;;;20.00;42.30;;;;;;5131668;27;20039;-38
2021/04/12 03:17:53;;;;;;;4.25;3.28;;;20.00;42.30;;;;;;5116880;27;20436;-37
2021/04/12 03:20:38;;;;;;;3.30;2.80;;;20.00;42.30;;;;;;5132318;27;20043;-37
2021/04/12 03:23:22;;;;;;;3.50;2.92;;;20.00;42.30;;;;;;5134513;27;20046;-38
2021/04/12 03:26:00;;;;;;;4.22;3.08;;;20.00;42.30;;;;;;5131661;27;20081;-38
2021/04/12 03:28:46;;;;;;;3.45;2.97;;;20.00;42.30;;;;;;5133865;27;20039;-38
2021/04/12 03:31:54;;;;;;;3.10;2.60;;;20.00;42.30;;;;;;5134435;27;20039;-38
2021/04/12 03:34:27;;;;;;;3.92;3.03;;;20.00;42.30;;;;;;5029280;28;20445;-38
2021/04/12 03:37:11;;;;;;;4.40;3.05;;;20.00;42.30;;;;;;5029965;28;20045;-37
2021/04/12 03:40:23;;;;;;;3.17;2.75;;;20.00;42.30;;;;;;5029268;28;20050;-38
2021/04/12 03:43:12;;;;;;;3.45;2.90;;;20.00;42.30;;;;;;4988798;28;20136;-38
2021/04/12 03:46:11;;;;;;;4.05;2.90;;;20.00;42.30;;;;;;5009920;28;20049;-37
2021/04/12 03:49:23;;;;;;;4.60;3.30;;;20.00;42.30;;;;;;5009539;28;20520;-37
2021/04/12 03:52:08;;;;;;;3.67;3.00;;;20.00;42.30;;;;;;4989606;28;20146;-38
2021/04/12 03:55:06;;;;;;;4.60;3.47;;;20.00;42.30;;;;;;4993356;28;20105;-38
2021/04/12 03:58:25;;;;;;;3.78;2.80;;;20.00;42.30;;;;;;4994482;28;20108;-38
2021/04/12 04:01:23;;;;;;;4.43;3.15;;;20.00;42.30;;;;;;4970383;28;20047;-37
2021/04/12 04:04:04;;;;;;;4.07;3.15;;;20.00;42.40;;;;;;4969272;28;20456;-37
2021/04/12 04:06:51;;;;;;;3.85;3.10;;;20.00;42.30;;;;;;4968012;28;20039;-37
2021/04/12 04:09:38;;;;;;;3.20;2.75;;;20.00;42.40;;;;;;4966533;28;20093;-38
2021/04/12 04:12:43;;;;;;;3.70;3.05;;;20.00;42.40;;;;;;5013072;28;20124;-37
2021/04/12 04:15:25;;;;;;;3.50;2.78;;;20.00;42.30;;;;;;5026227;28;20042;-37
2021/04/12 04:18:06;;;;;;;3.28;2.70;;;20.00;42.30;;;;;;5028582;28;20498;-38
2021/04/12 04:20:55;;;;;;;3.45;2.40;;;20.00;42.40;;;;;;5008900;28;20062;-37
2021/04/12 04:23:43;;;;;;;3.42;2.70;;;20.00;42.30;;;;;;5008163;28;20465;-38
2021/04/12 04:26:27;;;;;;;4.00;2.95;;;20.00;42.30;;;;;;5008800;28;20144;-37
2021/04/12 04:29:38;;;;;;;3.17;2.85;;;20.00;42.30;;;;;;5006424;28;20053;-37
2021/04/12 04:32:44;;;;;;;3.17;2.65;;;20.00;42.30;;;;;;4991246;28;20042;-37
2021/04/12 04:35:32;;;;;;;3.17;2.58;;;20.00;42.30;;;;;;5063132;27;20072;-37
2021/04/12 04:38:03;;;;;;;4.20;2.75;;;20.00;42.30;;;;;;5130587;27;20354;-37
2021/04/12 04:40:51;;;;;;;3.17;2.63;;;20.00;42.30;;;;;;5130161;27;20459;-37
2021/04/12 04:43:46;;;;;;;4.05;2.83;;;20.00;42.30;;;;;;5132669;27;20074;-37
2021/04/12 04:46:16;;;;;;;3.58;2.88;;;20.00;42.30;;;;;;5131317;27;20498;-37
2021/04/12 04:48:51;;;;;;;3.67;2.90;;;20.00;42.30;;;;;;5122479;28;20148;-38
2021/04/12 04:51:40;;;;;;;3.85;2.88;;;20.00;42.30;;;;;;5114352;28;20044;-38
2021/04/12 04:55:14;;;;;;;3.85;2.55;;;20.00;42.40;;;;;;5115814;28;20089;-37
2021/04/12 04:57:54;;;;;;;3.30;2.75;;;20.00;42.40;;;;;;5030503;28;20493;-37
2021/04/12 05:00:25;;;;;;;4.00;2.85;;;20.00;42.30;;;;;;5031448;28;20476;-38
2021/04/12 05:03:20;;;;;;;3.38;2.70;;;20.00;42.30;;;;;;5032114;28;20120;-38
2021/04/12 05:05:52;;;;;;;3.30;2.70;;;20.00;42.30;;;;;;5034608;28;20115;-38
2021/04/12 05:08:56;;;;;;;3.80;2.97;;;20.00;42.30;;;;;;5047941;28;20045;-37
2021/04/12 05:11:52;;;;;;;3.83;2.40;;;20.00;42.30;;;;;;5047841;28;20128;-37
2021/04/12 05:15:00;;;;;;;3.45;2.95;;;20.00;42.40;;;;;;5038581;28;20132;-37
2021/04/12 05:18:05;;;;;;;3.70;2.80;;;20.00;42.30;;;;;;5044433;28;20055;-37
2021/04/12 05:20:43;;;;;;;;;;;20.00;42.40;;;;;;5048047;28;20133;-37
2021/04/12 05:23:19;;;;;;;2.95;2.47;;;20.00;42.40;;;;;;5048263;28;19999;-38
2021/04/12 05:26:13;;;;;;;3.67;2.72;;;20.00;42.30;;;;;;5048439;28;20095;-38
2021/04/12 05:28:42;;;;;;;4.30;2.93;;;20.00;42.40;;;;;;5030849;28;20083;-38
2021/04/12 05:31:44;;;;;;;3.05;2.60;;;20.00;42.40;;;;;;5068806;28;20463;-37
2021/04/12 05:34:38;;;;;;;3.40;2.72;;;20.00;42.40;;;;;;5122045;28;20048;-38
2021/04/12 05:37:50;;;;;;;3.15;2.50;;;20.00;42.40;;;;;;5122238;28;20087;-37
2021/04/12 05:40:41;;;;;;;3.72;2.67;;;20.00;42.40;;;;;;5026769;28;20132;-37
2021/04/12 05:43:11;;;;;;;3.60;2.58;;;20.00;42.30;;;;;;5026827;28;20464;-37
2021/04/12 05:45:50;;;;;;;3.42;2.83;;;20.00;42.30;;;;;;5016501;28;20058;-38
2021/04/12 05:48:55;;;;;;;3.50;2.70;;;20.00;42.30;;;;;;5015345;28;20420;-37
2021/04/12 05:51:51;;;;;;;3.40;2.70;;;20.00;42.30;;;;;;5013847;28;20057;-37
2021/04/12 05:54:30;;;;;;;3.42;2.50;;;20.00;42.40;;;;;;5016218;28;20057;-37
2021/04/12 05:57:21;;;;;;;3.15;2.45;;;20.00;42.30;;;;;;5015004;28;20153;-38
2021/04/12 06:00:12;;;;;;;3.22;2.65;;;20.00;42.30;;;;;;5016636;28;20595;-37
2021/04/12 06:03:08;;;;;;;3.20;2.55;;;20.10;42.40;;;;;;5029663;28;20053;-37
2021/04/12 06:05:34;;;;;;;2.80;2.53;;;20.00;42.30;;;;;;5030386;28;20145;-37
2021/04/12 06:08:25;;;;;;;4.13;2.90;;;20.00;42.30;;;;;;5029812;28;20107;-38
2021/04/12 06:11:27;;;;;;;3.10;2.58;;;20.00;42.30;;;;;;5030862;28;20046;-37
2021/04/12 06:14:18;;;;;;;2.85;2.60;;;20.10;42.40;;;;;;5030941;28;20164;-37
2021/04/12 06:17:12;;;;;;;3.35;2.40;;;20.10;42.40;;;;;;5088283;28;20899;-37
2021/04/12 06:20:05;;;;;;;3.97;3.20;;;20.10;42.30;;;;;;5089238;28;20045;-38
2021/04/12 06:22:53;;;;;;;3.58;2.72;;;20.10;42.30;;;;;;5074702;28;20056;-38
2021/04/12 06:25:39;;;;;;;4.07;3.40;;;20.00;42.30;;;;;;5072580;28;20409;-38
2021/04/12 06:28:33;;;;;;;6.03;4.13;;;20.10;42.40;;;;;;5106564;27;20126;-38
2021/04/12 06:31:23;;;;;;;4.82;3.97;;;20.00;42.20;;;;;;5133948;27;20133;-38
2021/04/12 06:34:30;;;;;;;6.75;4.95;;;20.10;42.40;;;;;;5131802;27;20054;-38
2021/04/12 06:37:16;;;;;;;7.78;5.72;;;20.10;42.40;;;;;;5130603;27;20055;-38
2021/04/12 06:40:16;;;;;;;8.50;5.53;;;20.10;42.40;;;;;;5133489;27;20075;-38
2021/04/12 06:43:28;;;;;;;8.20;5.55;;;20.10;42.40;;;;;;5116371;27;20104;-37
2021/04/12 06:46:12;;;;;;;6.13;4.63;;;20.10;42.40;;;;;;5037877;28;20049;-38
2021/04/12 06:49:03;;;;;;;7.90;5.80;;;20.10;42.40;;;;;;5051296;28;20045;-37
2021/04/12 06:51:59;;;;;;;9.98;5.85;;;20.10;42.40;;;;;;5051151;28;20041;-38
2021/04/12 06:54:50;;;;;;;8.18;5.38;;;20.10;42.40;;;;;;5051211;28;20075;-37
2021/04/12 06:57:50;;;;;;;7.25;5.40;;;20.10;42.40;;;;;;5050627;28;20500;-38
2021/04/12 07:01:04;;;;;;;8.07;5.13;;;20.10;42.40;;;;;;5051034;28;20060;-37
2021/04/12 07:04:12;;;;;;;7.50;5.47;;;20.10;42.40;;;;;;5034814;28;20071;-38
2021/04/12 07:06:57;;;;;;;7.55;5.10;;;20.10;42.40;;;;;;5039221;28;20519;-38
2021/04/12 07:09:35;;;;;;;8.20;5.60;;;20.10;42.40;;;;;;5050912;28;20045;-37
2021/04/12 07:12:37;;;;;;;7.90;6.20;;;20.10;42.40;;;;;;5050950;28;20041;-39
2021/04/12 07:15:41;;;;;;;8.98;6.22;;;20.10;42.40;;;;;;5049216;28;20528;-38
2021/04/12 07:18:16;;;;;;;9.15;5.70;;;20.10;42.40;;;;;;5050829;28;20052;-41
2021/04/12 07:21:11;;;;;;;9.18;6.57;;;20.10;42.40;;;;;;5050844;28;20045;-37
2021/04/12 07:23:56;;;;;;;9.65;6.63;;;20.10;42.30;;;;;;5105257;27;20047;-37
2021/04/12 07:27:00;;;;;;;9.50;6.35;;;20.10;42.40;;;;;;5133328;27;20051;-37
2021/04/12 07:29:41;;;;;;;9.95;6.43;;;20.10;42.30;;;;;;5116436;27;20051;-38
2021/04/12 07:33:08;;;;;;;9.45;6.70;;;20.10;42.30;;;;;;5131626;27;20035;-37
2021/04/12 07:35:43;;;;;;;8.85;5.93;;;20.10;42.30;;;;;;5037425;28;20072;-37
2021/04/12 07:38:19;;;;;;;9.30;6.38;;;20.10;42.30;;;;;;5035235;28;20410;-38
2021/04/12 07:41:24;;;;;;;10.45;7.55;;;20.10;42.30;;;;;;5030384;28;20111;-38
2021/04/12 07:44:29;;;;;;;11.85;7.63;;;20.20;42.40;;;;;;5026671;28;20160;-38
2021/04/12 07:47:30;;;;;;;11.07;7.47;;;20.20;42.40;;;;;;5030367;28;20096;-37
2021/04/12 07:50:30;;;;;;;9.82;6.75;;;20.10;42.30;;;;;;5014638;28;20042;-38
2021/04/12 07:53:21;;;;;;;12.15;8.35;;;20.20;42.40;;;;;;5029415;28;20205;-38
2021/04/12 07:56:37;;;;;;;11.35;7.50;;;20.20;42.40;;;;;;5030439;28;20072;-38
2021/04/12 07:59:12;;;;;;;10.35;7.53;;;20.10;42.30;;;;;;5026484;28;20053;-37
2021/04/12 08:02:16;;;;;;;10.95;8.00;;;20.20;42.40;;;;;;5014274;28;20229;-37
2021/04/12 08:05:10;;;;;;;11.40;7.75;;;20.20;42.40;;;;;;5027837;28;20137;-37
2021/04/12 08:08:01;;;;;;;12.60;8.90;;;20.20;42.40;;;;;;5011750;28;20077;-38
2021/04/12 08:11:02;;;;;;;12.32;8.57;;;20.20;42.40;;;;;;5100813;27;20054;-37
2021/04/12 08:13:48;;;;;;;14.45;9.35;;;20.20;42.40;;;;;;5115961;27;20423;-37
2021/04/12 08:16:39;;;;;;;12.98;9.10;;;20.20;42.40;;;;;;5122455;27;20107;-38
2021/04/12 08:19:30;;;;;;;12.95;9.30;;;20.20;42.40;;;;;;5130632;27;20051;-37
2021/04/12 08:22:06;;;;;;;11.48;8.32;;;20.20;42.40;;;;;;5131712;27;20050;-38
2021/04/12 08:24:50;;;;;;;12.38;8.75;;;20.20;43.00;;;;;;5129323;27;20159;-37
2021/04/12 08:27:42;;;;;;;;;;;20.20;42.40;;;;;;5131120;27;20043;-38
2021/04/12 08:30:21;;;;;;;14.68;9.18;;;20.20;42.40;;;;;;5130436;27;19955;-37
2021/04/12 08:33:16;;;;;;;13.43;9.75;;;20.20;42.40;;;;;;5131043;27;20119;-38
2021/04/12 08:36:00;;;;;;;16.02;10.60;;;20.20;42.40;;;;;;5130316;27;20046;-38
2021/04/12 08:38:50;;;;;;;14.18;9.77;;;20.20;42.50;;;;;;5113624;28;20092;-38
2021/04/12 08:41:39;;;;;;;14.55;10.20;;;20.20;42.50;;;;;;5116424;27;20075;-37
2021/04/12 08:44:14;;;;;;;14.68;9.73;;;20.20;42.50;;;;;;5129474;27;20046;-37
2021/04/12 08:47:02;;;;;;;14.65;10.73;;;20.20;42.50;;;;;;5132438;27;20054;-37
2021/04/12 08:49:31;;;;;;;15.00;9.82;;;20.20;42.50;;;;;;5132609;28;20047;-38
2021/04/12 08:52:48;;;;;;;14.15;10.07;;;20.20;42.50;;;;;;5127468;28;20116;-38
2021/04/12 08:55:48;;;;;;;14.52;9.70;;;20.20;42.50;;;;;;5115606;28;20051;-38
2021/04/12 08:58:50;;;;;;;13.23;9.55;;;20.20;42.50;;;;;;5113510;28;20451;-38
2021/04/12 09:01:32;;;;;;;13.40;9.48;;;20.20;42.50;;;;;;5130575;28;20104;-38
2021/04/12 09:04:58;;;;;;;14.63;10.45;;;20.20;42.50;;;;;;5112863;28;20046;-38
2021/04/12 09:07:25;;;;;;;15.18;9.73;;;20.20;42.60;;;;;;5017696;28;20414;-38
2021/04/12 09:10:04;;;;;;;11.82;8.77;;;20.20;42.60;;;;;;5024694;28;20042;-38
2021/04/12 09:12:48;;;;;;;13.70;9.15;;;20.20;42.60;;;;;;5016936;28;20499;-38
2021/04/12 09:15:43;;;;;;;14.07;9.60;;;20.20;42.60;;;;;;5012893;28;20188;-39
2021/04/12 09:18:28;;;;;;;14.85;10.30;;;20.20;42.60;;;;;;5019834;28;20504;-38
2021/04/12 09:21:15;;;;;;;14.30;9.65;;;20.20;42.60;;;;;;5026753;28;20148;-38
2021/04/12 09:24:19;;;;;;;13.63;9.23;;;20.20;42.60;;;;;;5032866;28;20053;-38
2021/04/12 09:27:04;;;;;;;13.57;9.27;;;20.20;42.60;;;;;;5032072;28;20049;-38
2021/04/12 09:29:39;;;;;;;12.82;9.98;;;20.20;42.60;;;;;;5031813;28;20490;-38
2021/04/12 09:32:30;;;;;;;13.10;9.60;;;20.20;42.60;;;;;;5031826;28;20049;-38
2021/04/12 09:35:18;;;;;;;12.70;9.20;;;20.20;42.60;;;;;;5016090;28;20049;-38
2021/04/12 09:38:09;;;;;;;14.40;9.88;;;20.20;42.60;;;;;;5017178;28;20548;-38
2021/04/12 09:41:12;;;;;;;13.27;9.40;;;20.20;42.60;;;;;;5062519;27;20113;-37
2021/04/12 09:44:27;;;;;;;14.93;9.75;;;20.20;42.60;;;;;;5132399;27;20051;-38
2021/04/12 09:47:13;;;;;;;13.73;9.55;;;20.20;42.60;;;;;;5135091;27;20099;-38
2021/04/12 09:50:34;;;;;;;14.38;9.57;;;20.20;42.60;;;;;;5119872;27;20124;-38
2021/04/12 09:53:47;;;;;;;12.50;8.50;;;20.20;42.60;;;;;;5053609;28;20053;-38
2021/04/12 09:56:31;;;;;;;14.27;9.98;;;20.20;42.60;;;;;;5058627;28;20118;-38
2021/04/12 09:59:10;;;;;;;13.18;9.63;;;20.20;42.60;;;;;;5060107;28;20504;-38
2021/04/12 10:01:58;;;;;;;12.25;8.88;;;20.20;42.60;;;;;;5052222;28;20512;-38
2021/04/12 10:05:02;;;;;;;12.02;8.95;;;20.20;42.60;;;;;;5051335;28;20600;-38
2021/04/12 10:07:34;;;;;;;15.48;10.43;;;20.20;42.60;;;;;;5053250;28;20051;-38
2021/04/12 10:10:17;;;;;;;12.95;9.70;;;20.20;42.70;;;;;;5065857;28;20056;-38
2021/04/12 10:13:30;;;;;;;13.48;9.15;;;20.20;42.70;;;;;;5068333;28;20070;-38
2021/04/12 10:16:02;;;;;;;12.70;9.13;;;20.20;42.70;;;;;;5035244;28;20128;-38
2021/04/12 10:18:40;;;;;;;14.90;9.32;;;20.20;42.70;;;;;;5034885;28;20438;-37
2021/04/12 10:21:19;;;;;;;13.88;9.60;;;20.20;42.70;;;;;;5035306;28;20048;-38
2021/04/12 10:23:59;;;;;;;13.18;9.32;;;20.20;42.70;;;;;;5034974;28;20082;-38
2021/04/12 10:26:33;;;;;;;13.27;9.20;;;20.20;42.70;;;;;;5090705;27;20046;-38
2021/04/12 10:29:09;;;;;;;11.98;9.35;;;20.10;42.70;;;;;;5132494;27;20126;-38
2021/04/12 10:31:41;;;;;;;13.02;8.48;;;20.20;42.80;;;;;;5114173;27;20853;-37
2021/04/12 10:34:14;;;;;;;12.13;8.70;;;20.20;42.80;;;;;;5133725;27;20497;-38
2021/04/12 10:36:57;;;;;;;12.00;8.75;;;20.10;42.70;;;;;;5120197;27;20043;-38
2021/04/12 10:39:31;;;;;;;12.90;9.32;;;20.20;43.40;;;;;;5133207;27;20043;-38
2021/04/12 10:42:08;;;;;;;;;;;20.20;42.80;;;;;;5117837;27;20443;-38
2021/04/12 10:45:12;;;;;;;12.27;9.05;;;20.10;42.70;;;;;;5118263;27;19919;-38
2021/04/12 10:48:00;;;;;;;12.15;9.10;;;20.20;42.80;;;;;;5103983;27;20075;-38
2021/04/12 10:50:46;;;;;;;11.55;8.27;;;20.10;42.80;;;;;;5124910;27;20043;-37
2021/04/12 10:53:45;;;;;;;12.65;8.85;;;20.10;42.70;;;;;;5133296;27;20054;-38
2021/04/12 10:56:37;;;;;;;11.82;8.25;;;20.10;42.70;;;;;;5114898;27;20039;-37
2021/04/12 10:59:47;;;;;;;13.23;9.23;;;20.10;42.70;;;;;;5132986;27;20044;-37
2021/04/12 11:02:48;;;;;;;12.35;8.73;;;20.10;42.70;;;;;;5053587;28;20121;-38
2021/04/12 11:05:18;;;;;;;12.40;8.45;;;20.10;42.70;;;;;;5058568;28;20479;-38
2021/04/12 11:07:50;;;;;;;11.75;9.07;;;20.10;42.70;;;;;;5069964;28;20048;-37
2021/04/12 11:10:40;;;;;;;12.15;8.20;;;20.10;42.70;;;;;;5070949;28;20060;-38
2021/04/12 11:13:30;;;;;;;11.30;8.68;;;20.10;42.70;;;;;;5069515;28;20531;-37
2021/04/12 11:16:34;;;;;;;12.32;8.43;;;20.10;42.80;;;;;;5069710;28;20053;-38
2021/04/12 11:19:11;;;;;;;12.13;8.93;;;20.10;42.80;;;;;;5069608;28;20047;-37
2021/04/12 11:22:05;;;;;;;11.27;8.20;;;20.10;42.80;;;;;;5069351;28;20090;-37
2021/04/12 11:24:54;;;;;;;12.13;8.90;;;20.10;42.80;;;;;;5068320;28;20063;-38
2021/04/12 11:27:41;;;;;;;12.02;8.70;;;20.10;42.80;;;;;;5068803;28;20128;-36
2021/04/12 11:30:20;;;;;;;12.23;8.60;;;20.10;42.80;;;;;;5069380;28;20048;-36
2021/04/12 11:33:17;;;;;;;11.25;8.63;;;20.10;42.80;;;;;;5069954;28;20052;-36
2021/04/12 11:36:10;;;;;;;12.07;8.73;;;20.10;42.80;;;;;;5052365;28;20419;-37
2021/04/12 11:38:56;;;;;;;10.23;8.02;;;20.10;42.80;;;;;;5103775;27;20105;-36
2021/04/12 11:41:29;;;;;;;11.75;8.43;;;20.10;42.80;;;;;;5121845;27;20065;-37
2021/04/12 11:44:02;;;;;;;13.88;9.60;;;20.10;42.80;;;;;;5127086;27;20070;-37
2021/04/12 11:46:35;;;;;;;11.73;8.27;;;20.10;42.80;;;;;;5117244;27;20407;-37
2021/04/12 11:49:05;;;;;;;11.80;7.97;;;20.10;42.80;;;;;;5121937;27;20126;-36
2021/04/12 11:51:53;;;;;;;11.65;8.57;;;20.10;42.80;;;;;;5126426;27;20135;-36
2021/04/12 11:54:39;;;;;;;12.70;8.80;;;20.10;42.80;;;;;;5123101;27;20123;-37
2021/04/12 11:57:35;;;;;;;11.13;8.20;;;20.10;42.80;;;;;;5131377;27;20079;-37
2021/04/12 12:00:14;;;;;;;12.07;8.25;;;20.10;42.80;;;;;;5133656;27;20097;-37
2021/04/12 12:03:02;;;;;;;12.15;8.55;;;20.10;42.80;;;;;;5130998;27;20050;-37
2021/04/12 12:05:36;;;;;;;12.23;8.70;;;20.10;42.80;;;;;;5131096;27;20126;-36
2021/04/12 12:08:12;;;;;;;12.95;8.70;;;20.10;42.80;;;;;;5131198;27;20581;-37
2021/04/12 12:11:00;;;;;;;10.93;8.20;;;20.10;42.80;;;;;;5130717;27;20039;-37
2021/04/12 12:13:54;;;;;;;10.43;8.27;;;20.10;42.70;;;;;;5132897;27;20054;-37
2021/04/12 12:16:26;;;;;;;12.50;9.18;;;20.10;42.80;;;;;;5132773;27;20075;-37
2021/04/12 12:19:18;;;;;;;10.32;7.85;;;20.10;42.80;;;;;;5131723;27;20047;-37
2021/04/12 12:21:51;;;;;;;10.20;8.02;;;20.10;42.80;;;;;;5115276;27;20043;-37
2021/04/12 12:24:22;;;;;;;11.68;8.15;;;20.10;42.80;;;;;;5116090;27;20103;-37
2021/04/12 12:27:05;;;;;;;12.45;8.32;;;20.10;42.70;;;;;;5112867;28;20051;-37
2021/04/12 12:29:52;;;;;;;12.90;8.05;;;20.10;42.70;;;;;;5113746;27;20051;-37
2021/04/12 12:32:50;;;;;;;11.32;8.15;;;20.10;42.70;;;;;;5118335;27;20047;-37
2021/04/12 12:35:25;;;;;;;11.35;8.27;;;20.10;42.70;;;;;;5126243;27;20043;-37
2021/04/12 12:38:01;;;;;;;11.98;8.18;;;20.10;42.70;;;;;;5127252;27;20036;-37
2021/04/12 12:40:35;;;;;;;12.02;8.27;;;20.10;42.70;;;;;;5099896;28;20047;-37
2021/04/12 12:43:08;;;;;;;11.40;8.07;;;20.10;42.70;;;;;;5114890;28;20051;-37
2021/04/12 12:45:39;;;;;;;9.95;7.45;;;20.10;42.70;;;;;;5116262;27;20441;-37
2021/04/12 12:48:27;;;;;;;11.63;8.57;;;20.10;42.70;;;;;;5120539;27;20500;-37
2021/04/12 12:51:07;;;;;;;10.55;7.97;;;20.10;42.70;;;;;;5109823;28;20044;-38
2021/04/12 12:53:39;;;;;;;11.15;8.00;;;20.10;42.70;;;;;;5123695;27;20067;-37
2021/04/12 12:56:13;;;;;;;11.65;8.35;;;20.10;42.70;;;;;;5130480;28;20393;-37
2021/04/12 12:58:50;;;;;;;12.80;8.90;;;20.10;42.70;;;;;;5132419;28;20047;-37
2021/04/12 13:01:36;;;;;;;10.45;7.95;;;20.10;42.60;;;;;;5130250;28;20075;-38
2021/04/12 13:04:30;;;;;;;10.60;7.97;;;20.10;42.70;;;;;;5131833;28;20460;-37
2021/04/12 13:07:11;;;;;;;11.25;8.00;;;20.10;42.70;;;;;;5130488;28;20410;-38
2021/04/12 13:09:52;;;;;;;10.40;7.20;;;20.10;42.70;;;;;;5129954;28;20051;-37
2021/04/12 13:12:19;;;;;;;9.60;6.85;;;20.10;42.70;;;;;;5131622;28;20043;-38
2021/04/12 13:14:50;;;;;;;11.82;8.18;;;20.10;42.70;;;;;;5131422;28;20107;-37
2021/04/12 13:17:34;;;;;;;9.77;7.65;;;20.10;42.60;;;;;;5130273;28;20100;-37
2021/04/12 13:20:16;;;;;;;11.38;7.70;;;20.10;42.60;;;;;;5131725;28;20055;-36
2021/04/12 13:22:46;;;;;;;9.75;7.28;;;20.10;42.60;;;;;;5112698;28;20077;-37
2021/04/12 13:25:15;;;;;;;10.40;7.32;;;20.10;42.60;;;;;;5115991;28;20125;-36
2021/04/12 13:27:48;;;;;;;10.43;7.28;;;20.10;42.70;;;;;;5096025;28;20528;-37
2021/04/12 13:30:27;;;;;;;11.02;7.55;;;20.10;43.30;;;;;;5115488;28;20075;-37
2021/04/12 13:33:22;;;;;;;9.80;7.43;;;20.10;42.70;;;;;;5131246;28;20051;-37
2021/04/12 13:35:58;;;;;;;10.32;8.10;;;20.10;42.60;;;;;;5130213;28;20058;-37
2021/04/12 13:38:30;;;;;;;11.55;7.80;;;20.10;42.60;;;;;;5130249;28;20069;-37
2021/04/12 13:41:14;;;;;;;10.55;7.28;;;20.10;42.60;;;;;;5132186;28;20051;-37
2021/04/12 13:43:42;;;;;;;;;;;20.10;42.70;;;;;;5114487;28;20081;-37
2021/04/12 13:46:22;;;;;;;9.10;6.80;;;20.00;42.60;;;;;;5110712;28;19927;-37
2021/04/12 13:49:11;;;;;;;9.77;7.53;;;20.00;42.60;;;;;;5131287;28;20047;-37
2021/04/12 13:51:49;;;;;;;10.40;7.32;;;20.10;42.60;;;;;;5113891;28;20039;-37
2021/04/12 13:54:37;;;;;;;10.25;7.40;;;20.00;42.60;;;;;;5113452;28;20040;-36
2021/04/12 13:57:13;;;;;;;9.07;7.10;;;20.10;42.60;;;;;;5130116;28;20409;-37
2021/04/12 13:59:47;;;;;;;9.23;6.53;;;20.00;42.60;;;;;;5117040;28;20070;-37
2021/04/12 14:02:32;;;;;;;10.50;7.68;;;20.10;43.20;;;;;;5131000;28;20125;-37
2021/04/12 14:05:05;;;;;;;8.50;6.70;;;20.10;42.70;;;;;;5114084;27;20047;-38
2021/04/12 14:07:43;;;;;;;9.55;7.32;;;20.10;42.60;;;;;;5132099;27;20047;-37
2021/04/12 14:10:16;;;;;;;10.20;7.50;;;20.10;42.60;;;;;;5135441;27;20503;-37
2021/04/12 14:12:54;;;;;;;9.77;7.40;;;20.00;42.60;;;;;;5135507;27;20043;-38
2021/04/12 14:15:32;;;;;;;10.70;6.82;;;20.10;42.60;;;;;;5135743;27;20043;-37
2021/04/12 14:18:05;;;;;;;10.00;7.30;;;20.10;42.60;;;;;;5130109;27;20043;-37
2021/04/12 14:20:43;;;;;;;11.10;8.00;;;20.00;42.60;;;;;;5099315;28;20099;-37
2021/04/12 14:23:22;;;;;;;9.15;6.97;;;20.00;42.60;;;;;;5125121;27;20047;-37
2021/04/12 14:25:59;;;;;;;9.70;6.78;;;20.00;42.60;;;;;;5125878;27;20052;-37
2021/04/12 14:28:30;;;;;;;10.73;7.15;;;20.10;42.60;;;;;;5125647;27;20203;-38